createdAt,value
2022-11-04T00:02:18.746Z,10.88
2022-11-04T00:07:37.729Z,10.91
2022-11-04T00:12:57.384Z,10.88
2022-11-04T00:18:16.487Z,10.8
2022-11-04T00:23:35.833Z,10.75
2022-11-04T00:28:54.647Z,10.64
2022-11-04T00:34:14.072Z,10.63
2022-11-04T00:39:33.202Z,10.61
2022-11-04T00:44:52.439Z,10.61
2022-11-04T00:50:12.817Z,10.56
2022-11-04T00:55:31.694Z,10.53
2022-11-04T01:00:51.294Z,10.56
2022-11-04T01:06:10.675Z,10.51
2022-11-04T01:11:29.563Z,10.53
2022-11-04T01:16:48.381Z,10.49
2022-11-04T01:22:07.921Z,10.43
2022-11-04T01:27:26.393Z,10.47
2022-11-04T01:32:45.268Z,10.5
2022-11-04T01:38:04.752Z,10.51
2022-11-04T01:43:23.797Z,10.5
2022-11-04T01:48:42.987Z,10.5
2022-11-04T01:54:02.213Z,10.56
2022-11-04T01:59:21.740Z,10.57
2022-11-04T02:04:41.449Z,10.56
2022-11-04T02:10:00.410Z,10.54
2022-11-04T02:15:19.704Z,10.6
2022-11-04T02:20:39.160Z,10.56
2022-11-04T02:25:58.445Z,10.56
2022-11-04T02:31:18.815Z,10.47
2022-11-04T02:36:38.516Z,10.46
2022-11-04T02:41:58.074Z,10.39
2022-11-04T02:47:17.792Z,10.37
2022-11-04T02:52:37.314Z,10.34
2022-11-04T02:57:56.596Z,10.36
2022-11-04T03:03:15.011Z,10.37
2022-11-04T03:08:33.828Z,10.37
2022-11-04T03:13:52.854Z,10.36
2022-11-04T03:19:11.635Z,10.3
2022-11-04T03:24:30.656Z,10.26
2022-11-04T03:29:49.439Z,10.26
2022-11-04T03:35:08.542Z,10.2
2022-11-04T03:40:27.375Z,10.2
2022-11-04T03:45:47.272Z,10.16
2022-11-04T03:51:06.152Z,10.13
2022-11-04T03:56:26.118Z,10.12
2022-11-04T04:01:45.650Z,10.05
2022-11-04T04:07:04.436Z,9.95
2022-11-04T04:12:22.929Z,9.99
2022-11-04T04:17:43.157Z,9.96
2022-11-04T04:23:02.264Z,9.93
2022-11-04T04:28:21.299Z,9.78
2022-11-04T04:33:40.353Z,9.72
2022-11-04T04:38:59.866Z,9.75
2022-11-04T04:45:34.068Z,9.75
2022-11-04T04:49:40.062Z,9.64
2022-11-04T04:54:59.314Z,9.63
2022-11-04T05:00:17.428Z,9.62
2022-11-04T05:05:36.975Z,9.52
2022-11-04T05:10:55.598Z,9.47
2022-11-04T05:16:15.650Z,9.35
2022-11-04T05:21:34.825Z,9.34
2022-11-04T05:26:53.592Z,9.26
2022-11-04T05:32:13.091Z,9.18
2022-11-04T05:37:32.523Z,9.1
2022-11-04T05:48:10.208Z,8.89
2022-11-04T05:53:29.112Z,8.84
2022-11-04T05:58:49.149Z,8.75
2022-11-04T06:04:08.326Z,8.75
2022-11-04T06:09:27.655Z,8.68
2022-11-04T06:14:46.129Z,8.64
2022-11-04T06:20:05.080Z,8.59
2022-11-04T06:25:24.600Z,8.58
2022-11-04T06:30:43.685Z,8.53
2022-11-04T06:36:02.636Z,8.52
2022-11-04T06:41:21.651Z,8.52
2022-11-04T06:46:41.265Z,8.46
2022-11-04T06:52:00.150Z,8.45
2022-11-04T06:57:18.357Z,8.43
2022-11-04T07:02:37.845Z,8.41
2022-11-04T07:07:56.864Z,8.34
2022-11-04T07:13:17.121Z,8.28
2022-11-04T07:18:36.626Z,8.24
2022-11-04T07:23:56.315Z,8.24
2022-11-04T07:29:14.856Z,8.32
2022-11-04T07:34:34.028Z,8.38
2022-11-04T07:39:53.800Z,8.42
2022-11-04T07:45:12.909Z,8.47
2022-11-04T07:50:32.586Z,8.56
2022-11-04T07:55:51.724Z,8.66
2022-11-04T08:01:10.226Z,8.82
2022-11-04T08:06:29.695Z,8.8
2022-11-04T08:11:49.144Z,8.85
2022-11-04T08:17:08.386Z,8.99
2022-11-04T08:22:31.768Z,9.07
2022-11-04T08:27:46.785Z,9.1
2022-11-04T08:33:05.984Z,9.13
2022-11-04T08:38:25.251Z,9.21
2022-11-04T08:43:44.222Z,9.31
2022-11-04T08:49:05.719Z,9.34
2022-11-04T08:54:22.636Z,9.42
2022-11-04T08:59:41.848Z,9.55
2022-11-04T09:05:01.975Z,9.68
2022-11-04T09:10:21.260Z,9.79
2022-11-04T09:15:40.042Z,9.88
2022-11-04T09:20:59.918Z,10.05
2022-11-04T09:26:19.299Z,10.14
2022-11-04T09:31:38.631Z,10.18
2022-11-04T09:36:57.625Z,10.3
2022-11-04T09:42:17.195Z,10.41
2022-11-04T09:47:36.024Z,10.53
2022-11-04T09:52:56.016Z,10.57
2022-11-04T09:58:15.733Z,10.67
2022-11-04T10:04:49.875Z,10.71
2022-11-04T10:08:55.582Z,10.74
2022-11-04T10:14:15.064Z,10.74
2022-11-04T10:19:34.064Z,10.91
2022-11-04T10:24:52.445Z,11.05
2022-11-04T10:30:11.782Z,11.28
2022-11-04T10:35:31.473Z,11.53
2022-11-04T10:40:51.163Z,11.66
2022-11-04T10:46:10.209Z,11.7
2022-11-04T10:51:28.614Z,11.74
2022-11-04T10:56:47.979Z,11.89
2022-11-04T11:02:08.123Z,12.07
2022-11-04T11:07:27.434Z,12.21
2022-11-04T11:12:50.899Z,12.24
2022-11-04T11:18:05.017Z,12.01
2022-11-04T11:23:24.193Z,12.13
2022-11-04T11:28:43.331Z,12.35
2022-11-04T11:34:02.130Z,12.7
2022-11-04T11:39:21.441Z,12.68
2022-11-04T11:44:40.551Z,12.69
2022-11-04T11:49:59.410Z,12.72
2022-11-04T11:55:18.711Z,12.99
2022-11-04T12:00:38.504Z,13.43
2022-11-04T12:06:19.088Z,13.4
2022-11-04T12:11:17.149Z,13.28
2022-11-04T12:16:36.059Z,13.36
2022-11-04T12:21:55.680Z,13.3
2022-11-04T12:32:35.065Z,13.19
2022-11-04T12:37:54.242Z,13.11
2022-11-04T12:43:13.268Z,12.82
2022-11-04T12:48:32.161Z,12.66
2022-11-04T12:53:50.743Z,12.46
2022-11-04T12:59:09.992Z,12.56
2022-11-04T13:04:29.594Z,12.76
2022-11-04T13:09:48.050Z,12.8
2022-11-04T13:15:07.349Z,12.69
2022-11-04T13:20:25.405Z,12.7
2022-11-04T13:25:44.886Z,12.7
2022-11-04T13:31:04.162Z,12.51
2022-11-04T13:36:23.725Z,12.32
2022-11-04T13:41:42.781Z,12.13
2022-11-04T13:47:02.266Z,12.02
2022-11-04T13:52:22.526Z,11.97
2022-11-04T13:57:41.619Z,11.97
2022-11-04T13:58:07.638Z,12.11
2022-11-04T14:03:26.475Z,11.86
2022-11-04T14:08:46.125Z,11.21
2022-11-04T14:14:05.805Z,9.63
2022-11-04T14:19:25.512Z,8.51
2022-11-04T14:24:44.224Z,8.27
2022-11-04T14:30:03.273Z,8.35
2022-11-04T14:35:22.622Z,8.47
2022-11-04T14:40:41.152Z,8.56
2022-11-04T14:45:59.881Z,8.56
2022-11-04T14:51:19.181Z,8.53
2022-11-04T14:56:38.098Z,8.49
2022-11-04T15:01:57.223Z,8.39
2022-11-04T15:07:15.994Z,8.29
2022-11-04T15:12:35.482Z,8.29
2022-11-04T15:17:54.502Z,8.18
2022-11-04T15:23:13.764Z,8.08
2022-11-04T15:28:32.928Z,8.14
2022-11-04T15:33:51.739Z,8.22
2022-11-04T15:39:10.759Z,8.29
2022-11-04T15:44:30.599Z,8.29
2022-11-04T15:49:50.719Z,8.27
2022-11-04T15:55:08.964Z,8.31
2022-11-04T16:00:28.518Z,8.27
2022-11-04T16:05:47.654Z,8.14
2022-11-04T16:11:07.107Z,8.02
2022-11-04T16:16:26.129Z,7.93
2022-11-04T16:21:44.877Z,7.86
2022-11-04T16:27:04.410Z,7.87
2022-11-04T16:32:23.476Z,7.8
2022-11-04T16:38:01.637Z,7.62
2022-11-04T16:43:02.119Z,7.56
2022-11-04T16:48:21.460Z,7.55
2022-11-04T16:53:41.182Z,7.5
2022-11-04T16:59:00.224Z,7.45
2022-11-04T17:04:19.726Z,7.33
2022-11-04T17:09:38.641Z,7.33
2022-11-04T17:14:57.472Z,7.42
2022-11-04T17:20:17.200Z,7.5
2022-11-04T17:25:36.046Z,7.58
2022-11-04T17:30:54.585Z,7.63
2022-11-04T17:36:14.773Z,7.7
2022-11-04T17:42:48.930Z,7.65
2022-11-04T17:46:52.404Z,7.65
2022-11-04T17:52:11.914Z,7.63
2022-11-04T17:57:31.742Z,7.65
2022-11-04T18:02:51.707Z,7.67
2022-11-04T18:08:10.341Z,7.62
2022-11-04T18:13:29.524Z,7.59
2022-11-04T18:18:48.847Z,7.59
2022-11-04T18:24:08.967Z,7.56
2022-11-04T18:29:27.000Z,7.56
2022-11-04T18:34:46.261Z,7.55
2022-11-04T18:40:05.372Z,7.52
2022-11-04T18:45:24.919Z,7.55
2022-11-04T18:50:43.191Z,7.65
2022-11-04T18:56:02.519Z,7.74
2022-11-04T19:01:21.954Z,7.81
2022-11-04T19:06:41.097Z,7.81
2022-11-04T19:12:01.470Z,7.84
2022-11-04T19:17:20.042Z,7.94
2022-11-04T19:22:39.029Z,7.98
2022-11-04T19:28:19.009Z,7.83
2022-11-04T19:33:26.278Z,7.7
2022-11-04T19:38:37.405Z,7.66
2022-11-04T19:43:56.659Z,7.63
2022-11-04T19:49:16.311Z,7.56
2022-11-04T19:54:35.833Z,7.56
2022-11-04T19:59:54.222Z,7.62
2022-11-04T20:05:14.286Z,7.71
2022-11-04T20:10:33.622Z,7.83
2022-11-04T20:15:51.850Z,7.89
2022-11-04T20:21:11.150Z,7.79
2022-11-04T20:26:30.974Z,7.7
2022-11-04T20:33:05.178Z,7.7
2022-11-04T20:37:10.410Z,7.71
2022-11-04T20:42:29.907Z,7.79
2022-11-04T20:51:02.985Z,7.9
2022-11-04T20:53:06.191Z,7.94
2022-11-04T20:58:25.645Z,7.9
2022-11-04T21:03:45.918Z,7.94
2022-11-04T21:09:04.887Z,8.01
2022-11-04T21:14:24.241Z,8.04
2022-11-04T21:19:42.704Z,8.08
2022-11-04T21:25:02.004Z,8.1
2022-11-04T21:30:21.295Z,8.1
2022-11-04T21:35:41.078Z,8.04
2022-11-04T21:40:59.252Z,7.95
2022-11-04T21:46:18.635Z,7.94
2022-11-04T21:51:39.017Z,8.02
2022-11-04T21:56:57.836Z,8.12
2022-11-04T22:02:16.931Z,8.17
2022-11-04T22:07:36.981Z,8.24
2022-11-04T22:12:56.611Z,8.2
2022-11-04T22:18:14.667Z,8.1
2022-11-04T22:23:34.202Z,8.1
2022-11-04T22:28:53.789Z,8.17
2022-11-04T22:34:21.222Z,8.17
2022-11-04T22:39:32.732Z,8.18
2022-11-04T22:44:51.573Z,8.22
2022-11-04T22:50:11.248Z,8.22
2022-11-04T22:55:30.189Z,8.22
2022-11-04T23:00:48.628Z,8.14
2022-11-04T23:06:08.000Z,8.02
2022-11-04T23:11:28.140Z,7.97
2022-11-04T23:16:47.296Z,7.94
2022-11-04T23:22:06.939Z,7.89
2022-11-04T23:28:41.088Z,7.87
2022-11-04T23:32:46.841Z,7.87
2022-11-04T23:38:06.415Z,7.87
2022-11-04T23:43:24.752Z,7.87
2022-11-04T23:48:44.218Z,7.93
2022-11-04T23:54:03.807Z,7.86
2022-11-04T23:59:22.255Z,7.84
